createdAt,value
2022-09-06T00:04:15.043Z,42.80
2022-09-06T00:06:43.639Z,42.78
2022-09-06T00:09:12.837Z,42.79
2022-09-06T00:11:40.839Z,42.79
2022-09-06T00:15:44.206Z,42.92
2022-09-06T00:18:12.325Z,43.02
2022-09-06T00:20:43.315Z,43.16
2022-09-06T00:23:11.400Z,43.22
2022-09-06T00:25:39.661Z,43.24
2022-09-06T00:28:07.841Z,43.26
2022-09-06T00:30:36.854Z,43.24
2022-09-06T00:33:05.244Z,43.50
2022-09-06T00:35:35.639Z,43.53
2022-09-06T00:38:03.843Z,43.59
2022-09-06T00:40:33.626Z,43.66
2022-09-06T00:43:01.807Z,43.78
2022-09-06T00:45:32.371Z,43.95
2022-09-06T00:48:02.131Z,44.01
2022-09-06T00:50:30.212Z,44.02
2022-09-06T00:52:58.222Z,43.94
2022-09-06T00:55:31.387Z,44.04
2022-09-06T00:57:59.488Z,43.71
2022-09-06T01:00:28.234Z,43.62
2022-09-06T01:02:57.312Z,43.52
2022-09-06T01:05:54.826Z,43.37
2022-09-06T01:09:10.408Z,43.43
2022-09-06T01:12:03.563Z,43.06
2022-09-06T01:14:51.283Z,43.07
2022-09-06T01:17:31.343Z,43.05
2022-09-06T01:20:19.849Z,42.93
2022-09-06T01:23:07.158Z,42.88
2022-09-06T01:26:12.349Z,42.77
2022-09-06T01:28:43.355Z,42.72
2022-09-06T01:31:22.349Z,42.75
2022-09-06T01:34:41.570Z,42.81
2022-09-06T01:37:13.197Z,42.90
2022-09-06T01:39:42.078Z,43.08
2022-09-06T01:42:10.955Z,43.16
2022-09-06T01:44:42.972Z,43.21
2022-09-06T01:47:35.720Z,43.23
2022-09-06T01:50:03.469Z,43.42
2022-09-06T01:52:50.873Z,43.55
2022-09-06T01:55:31.999Z,43.56
2022-09-06T01:58:20.090Z,43.72
2022-09-06T02:01:05.367Z,43.88
2022-09-06T02:03:37.250Z,44.00
2022-09-06T02:06:09.132Z,44.16
2022-09-06T02:08:49.220Z,44.36
2022-09-06T02:11:19.585Z,44.48
2022-09-06T02:14:05.697Z,44.63
2022-09-06T02:16:36.257Z,44.83
2022-09-06T02:19:15.014Z,44.81
2022-09-06T02:21:45.447Z,44.99
2022-09-06T02:24:21.807Z,45.19
2022-09-06T02:26:50.220Z,45.26
2022-09-06T02:29:18.867Z,45.35
2022-09-06T02:32:02.230Z,45.50
2022-09-06T02:34:30.480Z,45.56
2022-09-06T02:37:00.503Z,45.71
2022-09-06T02:39:28.693Z,45.79
2022-09-06T02:41:56.858Z,45.71
2022-09-06T02:44:24.928Z,45.86
2022-09-06T02:46:56.922Z,46.06
2022-09-06T02:49:27.213Z,46.25
2022-09-06T02:51:55.457Z,46.30
2022-09-06T02:54:24.498Z,46.49
2022-09-06T02:56:53.806Z,46.73
2022-09-06T02:59:22.039Z,46.73
2022-09-06T03:01:51.434Z,46.79
2022-09-06T03:04:19.844Z,47.02
2022-09-06T03:06:48.124Z,47.21
2022-09-06T03:09:16.501Z,47.26
2022-09-06T03:11:47.455Z,47.43
2022-09-06T03:14:17.516Z,47.65
2022-09-06T03:16:47.334Z,47.62
2022-09-06T03:19:15.625Z,47.65
2022-09-06T03:21:45.565Z,47.64
2022-09-06T03:24:13.854Z,47.52
2022-09-06T03:26:44.126Z,47.59
2022-09-06T03:29:12.430Z,47.52
2022-09-06T03:31:40.589Z,47.66
2022-09-06T03:34:11.105Z,47.62
2022-09-06T03:36:39.597Z,47.70
2022-09-06T03:39:08.241Z,47.52
2022-09-06T03:41:38.249Z,47.53
2022-09-06T03:44:06.653Z,47.45
2022-09-06T03:46:34.824Z,47.51
2022-09-06T03:49:03.147Z,47.59
2022-09-06T03:51:33.998Z,47.61
2022-09-06T03:54:07.602Z,47.81
2022-09-06T03:56:35.846Z,47.68
2022-09-06T03:59:04.346Z,47.65
2022-09-06T04:01:32.729Z,47.81
2022-09-06T04:04:02.485Z,47.83
2022-09-06T04:06:30.811Z,47.79
2022-09-06T04:09:00.828Z,47.78
2022-09-06T04:11:29.190Z,47.55
2022-09-06T04:14:01.010Z,47.54
2022-09-06T04:16:31.647Z,47.61
2022-09-06T04:19:01.784Z,47.58
2022-09-06T04:21:33.051Z,47.67
2022-09-06T04:24:02.128Z,47.41
2022-09-06T04:26:31.113Z,47.45
2022-09-06T04:28:59.387Z,47.49
2022-09-06T04:31:28.543Z,47.30
2022-09-06T04:33:57.695Z,47.12
2022-09-06T04:36:26.793Z,47.00
2022-09-06T04:38:55.758Z,46.96
2022-09-06T04:41:24.067Z,46.83
2022-09-06T04:43:52.831Z,46.77
2022-09-06T04:46:22.872Z,46.81
2022-09-06T04:48:55.242Z,46.80
2022-09-06T04:51:24.530Z,46.72
2022-09-06T04:53:53.719Z,46.75
2022-09-06T04:56:23.511Z,46.65
2022-09-06T04:58:53.565Z,46.65
2022-09-06T05:01:26.528Z,46.62
2022-09-06T05:03:57.052Z,46.71
2022-09-06T05:06:27.012Z,46.66
2022-09-06T05:08:57.701Z,46.59
2022-09-06T05:11:25.975Z,46.57
2022-09-06T05:13:54.996Z,46.70
2022-09-06T05:16:23.800Z,46.90
2022-09-06T05:18:52.470Z,46.93
2022-09-06T05:21:37.424Z,47.35
2022-09-06T05:24:16.249Z,47.06
2022-09-06T05:26:44.758Z,47.04
2022-09-06T05:29:14.657Z,46.88
2022-09-06T05:31:42.946Z,47.00
2022-09-06T05:34:13.623Z,46.85
2022-09-06T05:36:44.036Z,46.88
2022-09-06T05:39:12.588Z,47.11
2022-09-06T05:41:40.855Z,47.14
2022-09-06T05:44:12.061Z,47.09
2022-09-06T05:46:47.799Z,47.30
2022-09-06T05:49:16.006Z,47.27
2022-09-06T05:51:51.879Z,47.42
2022-09-06T05:54:26.904Z,47.42
2022-09-06T05:56:55.364Z,47.36
2022-09-06T05:59:26.595Z,47.53
2022-09-06T06:01:55.463Z,47.47
2022-09-06T06:04:25.321Z,47.59
2022-09-06T06:06:53.274Z,48.01
2022-09-06T06:09:23.306Z,47.87
2022-09-06T06:11:51.340Z,47.68
2022-09-06T06:14:21.894Z,47.85
2022-09-06T06:16:50.028Z,47.72
2022-09-06T06:19:20.585Z,47.77
2022-09-06T06:21:48.657Z,47.67
2022-09-06T06:24:17.227Z,47.81
2022-09-06T06:26:45.318Z,47.82
2022-09-06T06:29:17.099Z,47.87
2022-09-06T06:31:45.991Z,47.92
2022-09-06T06:34:14.036Z,48.19
2022-09-06T06:36:42.001Z,48.33
2022-09-06T06:39:10.171Z,48.26
2022-09-06T06:41:38.366Z,48.53
2022-09-06T06:44:20.157Z,48.64
2022-09-06T06:46:50.135Z,48.72
2022-09-06T06:49:20.404Z,48.78
2022-09-06T06:51:50.771Z,48.93
2022-09-06T06:54:19.772Z,48.78
2022-09-06T06:56:47.834Z,48.47
2022-09-06T06:59:15.819Z,48.32
2022-09-06T07:01:43.880Z,48.26
2022-09-06T07:04:14.264Z,48.08
2022-09-06T07:12:32.794Z,47.65
2022-09-06T07:15:01.081Z,47.48
2022-09-06T07:17:30.112Z,47.84
2022-09-06T07:20:14.997Z,47.47
2022-09-06T07:22:43.971Z,47.78
2022-09-06T07:25:21.380Z,47.69
2022-09-06T07:28:01.621Z,47.61
2022-09-06T07:30:37.843Z,47.36
2022-09-06T07:33:07.252Z,47.64
2022-09-06T07:35:36.159Z,47.45
2022-09-06T07:38:05.334Z,47.15
2022-09-06T07:40:33.283Z,46.93
2022-09-06T07:43:01.386Z,46.87
2022-09-06T07:45:35.825Z,46.63
2022-09-06T07:48:07.327Z,46.47
2022-09-06T07:50:51.864Z,46.32
2022-09-06T07:53:29.265Z,46.32
2022-09-06T07:56:00.886Z,46.02
2022-09-06T07:58:32.406Z,45.27
2022-09-06T08:01:19.468Z,44.94
2022-09-06T08:03:48.316Z,44.59
2022-09-06T08:06:22.030Z,43.10
2022-09-06T08:11:27.245Z,42.48
2022-09-06T08:13:57.177Z,41.83
2022-09-06T08:16:28.524Z,41.87
2022-09-06T08:19:02.307Z,41.74
2022-09-06T08:21:32.602Z,41.50
2022-09-06T08:24:11.158Z,41.40
2022-09-06T08:26:43.412Z,41.30
2022-09-06T08:29:12.539Z,41.27
2022-09-06T08:31:48.465Z,41.74
2022-09-06T08:34:17.767Z,42.14
2022-09-06T08:36:46.455Z,42.36
2022-09-06T08:39:14.572Z,42.39
2022-09-06T08:41:49.813Z,42.45
2022-09-06T08:44:56.321Z,42.83
2022-09-06T08:47:25.423Z,42.91
2022-09-06T08:50:06.322Z,42.65
2022-09-06T08:53:18.301Z,42.56
2022-09-06T08:56:51.191Z,43.00
2022-09-06T08:59:21.044Z,42.88
2022-09-06T09:02:09.273Z,42.41
2022-09-06T09:05:15.831Z,42.34
2022-09-06T09:07:50.182Z,41.44
2022-09-06T09:10:29.054Z,41.14
2022-09-06T09:12:57.962Z,40.61
2022-09-06T09:15:26.486Z,39.63
2022-09-06T09:17:57.911Z,38.89
2022-09-06T09:20:28.829Z,38.39
2022-09-06T09:22:59.200Z,38.83
2022-09-06T09:25:36.580Z,38.30
2022-09-06T09:28:20.403Z,38.20
2022-09-06T09:30:55.108Z,38.50
2022-09-06T09:33:28.458Z,39.22
2022-09-06T09:36:10.039Z,39.27
2022-09-06T09:38:50.058Z,39.32
2022-09-06T09:41:45.963Z,39.73
2022-09-06T09:44:32.396Z,40.38
2022-09-06T09:47:25.305Z,40.53
2022-09-06T09:50:02.150Z,40.59
2022-09-06T09:52:34.609Z,40.54
2022-09-06T09:55:32.017Z,41.08
2022-09-06T09:58:34.150Z,40.95
2022-09-06T10:01:23.191Z,40.87
2022-09-06T10:07:18.790Z,40.12
2022-09-06T10:09:47.575Z,40.55
2022-09-06T10:12:20.579Z,40.16
2022-09-06T10:14:49.896Z,38.91
2022-09-06T10:17:30.844Z,38.40
2022-09-06T10:20:09.848Z,38.22
2022-09-06T10:23:13.782Z,37.10
2022-09-06T10:26:03.643Z,35.65
2022-09-06T10:28:47.501Z,34.75
2022-09-06T10:31:43.387Z,33.56
2022-09-06T10:34:21.636Z,33.63
2022-09-06T10:37:04.076Z,33.99
2022-09-06T10:40:00.639Z,31.91
2022-09-06T10:42:48.839Z,31.94
2022-09-06T10:46:00.862Z,32.47
2022-09-06T10:48:47.102Z,32.52
2022-09-06T10:51:32.798Z,32.89
2022-09-06T10:54:08.248Z,32.94
2022-09-06T10:56:54.223Z,32.10
2022-09-06T11:00:03.050Z,31.05
2022-09-06T11:06:17.269Z,31.64
2022-09-06T11:09:06.167Z,30.42
2022-09-06T11:12:09.584Z,30.90
2022-09-06T11:14:39.686Z,30.78
2022-09-06T11:17:20.281Z,31.02
2022-09-06T11:20:36.142Z,31.78
2022-09-06T11:23:29.257Z,32.25
2022-09-06T11:26:18.425Z,32.66
2022-09-06T11:28:54.052Z,32.90
2022-09-06T11:34:55.703Z,32.81
2022-09-06T11:37:39.528Z,33.08
2022-09-06T11:40:32.362Z,32.94
2022-09-06T11:43:01.557Z,33.27
2022-09-06T11:45:54.678Z,33.51
2022-09-06T11:48:36.538Z,33.59
2022-09-06T11:51:16.274Z,34.03
2022-09-06T11:53:51.141Z,34.02
2022-09-06T11:56:40.704Z,34.21
2022-09-06T11:59:22.297Z,34.12
2022-09-06T12:02:02.974Z,34.38
2022-09-06T12:05:00.474Z,34.64
2022-09-06T12:07:33.723Z,34.40
2022-09-06T12:10:36.615Z,34.68
2022-09-06T12:13:35.238Z,35.01
2022-09-06T12:16:14.862Z,34.86
2022-09-06T12:18:54.588Z,35.03
2022-09-06T12:21:35.746Z,34.30
2022-09-06T12:24:29.117Z,34.25
2022-09-06T12:27:49.826Z,33.98
2022-09-06T12:30:45.731Z,34.05
2022-09-06T12:37:53.832Z,33.72
2022-09-06T12:40:23.290Z,33.49
2022-09-06T12:42:51.971Z,32.73
2022-09-06T12:45:26.547Z,32.65
2022-09-06T12:48:11.093Z,33.46
2022-09-06T12:50:39.810Z,31.92
2022-09-06T12:53:24.711Z,32.04
2022-09-06T12:56:12.193Z,31.74
2022-09-06T12:58:40.811Z,31.15
2022-09-06T13:01:22.889Z,30.87
2022-09-06T13:04:03.421Z,30.35
2022-09-06T13:06:36.572Z,30.77
2022-09-06T13:09:05.144Z,31.10
2022-09-06T13:11:39.907Z,31.14
2022-09-06T13:14:14.360Z,31.53
2022-09-06T13:16:45.675Z,31.93
2022-09-06T13:19:14.785Z,31.93
2022-09-06T13:21:44.154Z,31.21
2022-09-06T13:24:23.653Z,31.51
2022-09-06T13:26:51.971Z,32.03
2022-09-06T13:29:25.331Z,31.80
2022-09-06T13:31:55.235Z,31.15
2022-09-06T13:34:31.596Z,31.23
2022-09-06T13:37:10.329Z,31.35
2022-09-06T13:39:46.410Z,30.02
2022-09-06T13:42:26.261Z,29.71
2022-09-06T13:44:56.804Z,30.01
2022-09-06T13:47:29.723Z,30.55
2022-09-06T13:49:57.890Z,30.37
2022-09-06T13:52:26.066Z,30.31
2022-09-06T13:54:54.455Z,29.75
2022-09-06T13:57:24.878Z,29.84
2022-09-06T13:59:52.932Z,30.45
2022-09-06T14:02:21.263Z,29.72
2022-09-06T14:04:49.718Z,29.50
2022-09-06T14:07:17.589Z,29.94
2022-09-06T14:09:45.815Z,29.80
2022-09-06T14:12:13.680Z,29.69
2022-09-06T14:14:41.551Z,29.12
2022-09-06T14:17:09.488Z,29.14
2022-09-06T14:19:37.434Z,28.33
2022-09-06T14:22:07.258Z,28.50
2022-09-06T14:24:35.349Z,28.95
2022-09-06T14:27:04.474Z,28.18
2022-09-06T14:29:32.833Z,28.67
2022-09-06T14:32:00.748Z,28.49
2022-09-06T14:34:29.916Z,27.46
2022-09-06T14:36:57.765Z,26.82
2022-09-06T14:39:25.586Z,25.78
2022-09-06T14:41:54.043Z,24.84
2022-09-06T14:44:22.131Z,24.61
2022-09-06T14:46:53.504Z,24.09
2022-09-06T14:49:21.776Z,22.99
2022-09-06T14:51:49.637Z,22.21
2022-09-06T14:54:19.477Z,22.69
2022-09-06T14:56:48.229Z,23.20
2022-09-06T14:59:16.122Z,23.18
2022-09-06T15:01:44.182Z,23.18
2022-09-06T15:04:12.303Z,23.39
2022-09-06T15:06:41.234Z,24.49
2022-09-06T15:09:11.689Z,25.13
2022-09-06T15:11:45.450Z,26.11
2022-09-06T15:14:22.634Z,26.44
2022-09-06T15:16:55.953Z,27.27
2022-09-06T15:19:25.642Z,27.88
2022-09-06T15:21:54.831Z,28.32
2022-09-06T15:24:24.201Z,28.48
2022-09-06T15:26:53.619Z,29.24
2022-09-06T15:29:21.658Z,29.97
2022-09-06T15:31:50.921Z,30.30
2022-09-06T15:34:21.001Z,30.71
2022-09-06T15:36:51.001Z,30.96
2022-09-06T15:39:19.421Z,31.46
2022-09-06T15:41:50.045Z,31.76
2022-09-06T15:44:19.384Z,32.32
2022-09-06T15:46:47.257Z,32.69
2022-09-06T15:49:18.173Z,33.05
2022-09-06T15:51:46.761Z,33.58
2022-09-06T15:54:17.005Z,34.15
2022-09-06T15:56:45.360Z,34.56
2022-09-06T15:59:13.335Z,34.99
2022-09-06T16:01:41.338Z,34.99
2022-09-06T16:04:09.326Z,35.37
2022-09-06T16:06:41.450Z,35.50
2022-09-06T16:09:17.597Z,35.99
2022-09-06T16:11:45.650Z,36.44
2022-09-06T16:14:15.431Z,37.10
2022-09-06T16:16:43.948Z,37.67
2022-09-06T16:19:12.737Z,36.91
2022-09-06T16:21:43.200Z,36.02
2022-09-06T16:24:13.399Z,35.88
2022-09-06T16:26:43.420Z,35.92
2022-09-06T16:29:12.941Z,35.85
2022-09-06T16:31:41.149Z,35.94
2022-09-06T16:34:10.460Z,35.92
2022-09-06T16:36:38.865Z,35.61
2022-09-06T16:39:07.646Z,35.05
2022-09-06T16:41:42.543Z,34.03
2022-09-06T16:44:16.982Z,34.48
2022-09-06T16:46:49.701Z,34.56
2022-09-06T16:49:19.272Z,35.08
2022-09-06T16:51:48.410Z,35.63
2022-09-06T16:54:18.263Z,35.92
2022-09-06T16:56:46.341Z,36.54
2022-09-06T16:59:17.498Z,37.14
2022-09-06T17:01:45.833Z,37.74
2022-09-06T17:04:14.563Z,37.81
2022-09-06T17:06:44.646Z,37.89
2022-09-06T17:09:16.426Z,38.37
2022-09-06T17:11:46.482Z,38.50
2022-09-06T17:14:14.369Z,38.58
2022-09-06T17:17:00.942Z,38.87
2022-09-06T17:19:29.847Z,39.24
2022-09-06T17:21:58.059Z,39.19
2022-09-06T17:24:26.944Z,39.73
2022-09-06T17:26:55.084Z,40.07
2022-09-06T17:29:26.693Z,40.00
2022-09-06T17:31:55.107Z,40.23
2022-09-06T17:34:23.218Z,40.22
2022-09-06T17:36:51.662Z,40.68
2022-09-06T17:39:23.915Z,40.75
2022-09-06T17:41:54.353Z,40.82
2022-09-06T17:44:25.651Z,40.88
2022-09-06T17:47:12.100Z,40.65
2022-09-06T17:49:40.951Z,40.47
2022-09-06T17:52:08.934Z,40.76
2022-09-06T17:54:38.279Z,41.11
2022-09-06T17:57:06.175Z,41.29
2022-09-06T17:59:35.688Z,41.08
2022-09-06T18:02:05.363Z,41.33
2022-09-06T18:04:34.654Z,41.39
2022-09-06T18:07:03.089Z,41.59
2022-09-06T18:09:32.036Z,41.64
2022-09-06T18:12:00.009Z,41.90
2022-09-06T18:14:30.693Z,42.16
2022-09-06T18:16:58.824Z,42.52
2022-09-06T18:19:28.116Z,42.92
2022-09-06T18:21:57.473Z,42.64
2022-09-06T18:24:28.568Z,42.73
2022-09-06T18:26:56.632Z,42.90
2022-09-06T18:29:28.913Z,42.90
2022-09-06T18:31:57.765Z,42.85
2022-09-06T18:34:26.885Z,42.92
2022-09-06T18:36:54.841Z,42.90
2022-09-06T18:39:22.723Z,43.09
2022-09-06T18:42:01.689Z,43.29
2022-09-06T18:44:33.914Z,43.25
2022-09-06T18:47:06.032Z,43.42
2022-09-06T18:49:39.459Z,43.72
2022-09-06T18:52:09.940Z,43.52
2022-09-06T18:54:40.359Z,43.60
2022-09-06T18:57:08.370Z,43.57
2022-09-06T18:59:37.398Z,43.73
2022-09-06T19:02:06.654Z,43.70
2022-09-06T19:04:35.813Z,43.72
2022-09-06T19:07:05.231Z,43.56
2022-09-06T19:09:33.162Z,43.67
2022-09-06T19:12:01.576Z,43.70
2022-09-06T19:14:30.415Z,43.70
2022-09-06T19:16:59.885Z,43.37
2022-09-06T19:19:28.542Z,43.43
2022-09-06T19:21:57.450Z,43.29
2022-09-06T19:24:25.798Z,43.14
2022-09-06T19:26:55.492Z,43.18
2022-09-06T19:29:23.884Z,43.38
2022-09-06T19:31:53.170Z,43.46
2022-09-06T19:34:22.439Z,43.49
2022-09-06T19:36:52.221Z,43.58
2022-09-06T19:39:21.687Z,43.54
2022-09-06T19:41:49.685Z,43.75
2022-09-06T19:44:18.694Z,43.92
2022-09-06T19:46:47.666Z,44.13
2022-09-06T19:49:19.489Z,44.29
2022-09-06T19:51:50.348Z,44.14
2022-09-06T19:54:18.444Z,44.21
2022-09-06T19:56:47.740Z,44.39
2022-09-06T19:59:16.627Z,44.54
2022-09-06T20:01:46.819Z,44.74
2022-09-06T20:04:15.756Z,44.70
2022-09-06T20:06:44.083Z,44.75
2022-09-06T20:09:12.412Z,44.84
2022-09-06T20:11:43.612Z,44.90
2022-09-06T20:14:12.338Z,45.17
2022-09-06T20:16:42.171Z,45.24
2022-09-06T20:19:12.592Z,45.52
2022-09-06T20:21:41.346Z,45.41
2022-09-06T20:24:09.303Z,45.53
2022-09-06T20:26:37.871Z,45.56
2022-09-06T20:29:08.679Z,45.58
2022-09-06T20:31:37.826Z,45.52
2022-09-06T20:34:07.307Z,45.58
2022-09-06T20:36:36.861Z,45.71
2022-09-06T20:39:05.237Z,45.54
2022-09-06T20:41:33.939Z,45.61
2022-09-06T20:44:02.716Z,45.66
2022-09-06T20:46:32.972Z,45.79
2022-09-06T20:49:04.707Z,45.78
2022-09-06T20:51:34.594Z,45.79
2022-09-06T20:54:05.051Z,45.90
2022-09-06T20:56:35.369Z,45.77
2022-09-06T20:59:06.080Z,45.95
2022-09-06T21:01:36.084Z,45.80
2022-09-06T21:04:06.364Z,45.83
2022-09-06T21:06:35.765Z,45.98
2022-09-06T21:09:05.711Z,45.92
2022-09-06T21:11:33.870Z,45.94
2022-09-06T21:14:02.749Z,45.93
2022-09-06T21:16:31.167Z,46.05
2022-09-06T21:19:05.460Z,46.04
2022-09-06T21:21:34.888Z,46.04
2022-09-06T21:24:04.890Z,46.15
2022-09-06T21:26:33.728Z,46.37
2022-09-06T21:29:02.614Z,46.42
2022-09-06T21:31:36.257Z,46.47
2022-09-06T21:34:09.044Z,46.63
2022-09-06T21:36:39.188Z,46.59
2022-09-06T21:39:12.267Z,46.70
2022-09-06T21:41:42.222Z,46.75
2022-09-06T21:44:10.523Z,46.85
2022-09-06T21:46:39.828Z,46.81
2022-09-06T21:49:10.148Z,46.84
2022-09-06T21:51:38.417Z,47.04
2022-09-06T21:54:06.785Z,47.17
2022-09-06T21:56:36.971Z,47.24
2022-09-06T21:59:06.023Z,47.29
2022-09-06T22:01:35.842Z,47.42
2022-09-06T22:04:04.361Z,47.43
2022-09-06T22:06:33.925Z,47.58
2022-09-06T22:09:07.850Z,47.65
2022-09-06T22:11:35.922Z,47.79
2022-09-06T22:14:06.175Z,48.05
2022-09-06T22:16:36.315Z,48.23
2022-09-06T22:19:08.646Z,48.33
2022-09-06T22:21:38.684Z,48.16
2022-09-06T22:24:09.177Z,48.27
2022-09-06T22:26:39.049Z,48.36
2022-09-06T22:29:09.056Z,48.42
2022-09-06T22:31:37.135Z,48.38
2022-09-06T22:34:05.316Z,48.56
2022-09-06T22:36:33.837Z,48.50
2022-09-06T22:39:02.503Z,48.32
2022-09-06T22:41:32.638Z,48.45
2022-09-06T22:44:02.163Z,48.46
2022-09-06T22:46:30.497Z,48.50
2022-09-06T22:48:58.901Z,48.60
2022-09-06T22:51:27.328Z,48.56
2022-09-06T22:53:55.358Z,48.76
2022-09-06T22:56:23.369Z,48.74
2022-09-06T22:58:51.917Z,48.73
2022-09-06T23:01:19.878Z,48.86
2022-09-06T23:03:49.900Z,48.85
2022-09-06T23:06:18.015Z,48.82
2022-09-06T23:08:45.973Z,48.89
2022-09-06T23:11:15.893Z,49.01
2022-09-06T23:13:44.310Z,48.89
2022-09-06T23:16:14.985Z,49.00
2022-09-06T23:18:43.461Z,49.12
2022-09-06T23:21:13.448Z,49.22
2022-09-06T23:23:42.130Z,49.19
2022-09-06T23:26:16.393Z,49.36
2022-09-06T23:28:44.697Z,49.33
2022-09-06T23:31:15.628Z,49.38
2022-09-06T23:33:43.928Z,49.37
2022-09-06T23:36:12.980Z,49.60
2022-09-06T23:38:41.621Z,49.62
2022-09-06T23:41:10.426Z,49.82
2022-09-06T23:43:39.632Z,49.69
2022-09-06T23:46:08.545Z,49.69
2022-09-06T23:48:36.775Z,49.45
2022-09-06T23:51:05.323Z,49.53
2022-09-06T23:53:33.444Z,49.44
2022-09-06T23:56:01.596Z,49.58
2022-09-06T23:58:29.706Z,49.70
